createdAt,value
2022-08-01T00:02:57.278Z,100.00
2022-08-01T00:08:02.096Z,100.00
2022-08-01T00:13:05.159Z,100.00
2022-08-01T00:18:08.361Z,100.00
2022-08-01T00:23:12.903Z,100.00
2022-08-01T00:28:16.019Z,100.00
2022-08-01T00:33:18.996Z,100.00
2022-08-01T00:38:23.411Z,100.00
2022-08-01T00:43:26.632Z,100.00
2022-08-01T00:48:29.639Z,100.00
2022-08-01T00:53:48.357Z,100.00
2022-08-01T00:58:55.626Z,100.00
2022-08-01T01:03:59.996Z,100.00
2022-08-01T01:09:19.121Z,100.00
2022-08-01T01:14:29.710Z,100.00
2022-08-01T01:19:36.034Z,100.00
2022-08-01T01:24:51.752Z,100.00
2022-08-01T01:30:01.206Z,100.00
2022-08-01T01:35:10.052Z,100.00
2022-08-01T01:40:14.510Z,100.00
2022-08-01T01:45:20.444Z,100.00
2022-08-01T01:50:25.092Z,100.00
2022-08-01T01:55:29.050Z,100.00
2022-08-01T02:06:53.922Z,100.00
2022-08-01T02:12:07.605Z,100.00
2022-08-01T02:17:17.663Z,100.00
2022-08-01T02:22:26.915Z,100.00
2022-08-01T02:27:36.102Z,100.00
2022-08-01T02:32:45.130Z,100.00
2022-08-01T02:37:50.440Z,100.00
2022-08-01T02:42:56.989Z,100.00
2022-08-01T02:48:08.042Z,100.00
2022-08-01T02:53:13.061Z,100.00
2022-08-01T02:58:18.521Z,100.00
2022-08-01T03:03:24.522Z,100.00
2022-08-01T03:08:28.113Z,100.00
2022-08-01T03:13:33.122Z,100.00
2022-08-01T03:18:39.032Z,100.00
2022-08-01T03:23:42.805Z,100.00
2022-08-01T03:28:48.425Z,100.00
2022-08-01T03:33:52.848Z,100.00
2022-08-01T03:38:59.316Z,100.00
2022-08-01T03:44:06.419Z,100.00
2022-08-01T03:49:22.135Z,100.00
2022-08-01T03:54:27.849Z,100.00
2022-08-01T03:59:32.392Z,100.00
2022-08-01T04:04:37.311Z,100.00
2022-08-01T04:09:40.688Z,100.00
2022-08-01T04:14:46.337Z,100.00
2022-08-01T04:19:50.629Z,100.00
2022-08-01T04:24:57.576Z,100.00
2022-08-01T04:30:02.571Z,100.00
2022-08-01T04:35:34.901Z,100.00
2022-08-01T04:40:36.859Z,100.00
2022-08-01T04:45:41.177Z,100.00
2022-08-01T04:50:45.966Z,100.00
2022-08-01T04:55:48.939Z,100.00
2022-08-01T05:00:52.410Z,100.00
2022-08-01T05:05:56.780Z,100.00
2022-08-01T05:10:59.808Z,100.00
2022-08-01T05:16:04.634Z,100.00
2022-08-01T05:21:09.262Z,100.00
2022-08-01T05:26:15.051Z,100.00
2022-08-01T05:31:18.725Z,100.00
2022-08-01T05:36:23.023Z,100.00
2022-08-01T05:41:26.037Z,100.00
2022-08-01T05:46:29.152Z,100.00
2022-08-01T05:51:33.959Z,100.00
2022-08-01T05:56:36.972Z,100.00
2022-08-01T06:01:39.858Z,100.00
2022-08-01T06:06:49.587Z,100.00
2022-08-01T06:11:52.700Z,100.00
2022-08-01T06:16:56.209Z,100.00
2022-08-01T06:22:00.816Z,100.00
2022-08-01T06:27:04.535Z,100.00
2022-08-01T06:32:26.863Z,100.00
2022-08-01T06:37:33.172Z,100.00
2022-08-01T06:42:37.881Z,100.00
2022-08-01T06:47:42.113Z,100.00
2022-08-01T06:52:46.909Z,100.00
2022-08-01T06:57:51.635Z,100.00
2022-08-01T07:02:56.464Z,100.00
2022-08-01T07:08:00.889Z,100.00
2022-08-01T07:13:03.957Z,100.00
2022-08-01T07:18:07.286Z,100.00
2022-08-01T07:23:11.762Z,100.00
2022-08-01T07:28:16.087Z,100.00
2022-08-01T07:33:19.183Z,100.00
2022-08-01T07:38:23.490Z,100.00
2022-08-01T07:43:26.726Z,100.00
2022-08-01T07:48:30.090Z,100.00
2022-08-01T07:53:34.385Z,100.00
2022-08-01T07:58:38.044Z,98.39
2022-08-01T08:03:41.184Z,98.11
2022-08-01T08:08:45.680Z,98.59
2022-08-01T08:13:49.337Z,100.00
2022-08-01T08:18:52.729Z,100.00
2022-08-01T08:24:14.683Z,100.00
2022-08-01T08:29:17.943Z,100.00
2022-08-01T08:34:21.474Z,100.00
2022-08-01T08:39:26.976Z,100.00
2022-08-01T08:44:30.583Z,100.00
2022-08-01T08:49:35.931Z,100.00
2022-08-01T08:54:43.089Z,100.00
2022-08-01T08:59:46.717Z,100.00
2022-08-01T09:04:50.513Z,100.00
2022-08-01T09:09:55.155Z,100.00
2022-08-01T09:14:58.230Z,100.00
2022-08-01T09:20:04.185Z,100.00
2022-08-01T09:25:11.896Z,100.00
2022-08-01T09:30:17.140Z,100.00
2022-08-01T09:35:30.080Z,100.00
2022-08-01T09:40:49.540Z,100.00
2022-08-01T09:45:53.814Z,100.00
2022-08-01T09:51:04.516Z,100.00
2022-08-01T09:56:15.472Z,100.00
2022-08-01T10:01:18.597Z,100.00
2022-08-01T10:06:24.759Z,100.00
2022-08-01T10:11:36.540Z,100.00
2022-08-01T10:16:41.281Z,100.00
2022-08-01T10:21:58.484Z,100.00
2022-08-01T10:27:08.287Z,100.00
2022-08-01T10:32:13.104Z,100.00
2022-08-01T10:37:18.169Z,100.00
2022-08-01T10:42:23.481Z,100.00
2022-08-01T10:47:50.787Z,100.00
2022-08-01T10:53:16.067Z,93.45
2022-08-01T10:58:26.127Z,96.55
2022-08-01T11:03:55.990Z,98.75
2022-08-01T11:09:01.683Z,89.50
2022-08-01T11:14:11.771Z,92.15
2022-08-01T11:19:15.587Z,95.89
2022-08-01T11:24:38.602Z,83.52
2022-08-01T11:29:43.892Z,80.69
2022-08-01T11:34:57.157Z,83.17
2022-08-01T11:40:22.762Z,74.14
2022-08-01T11:45:50.821Z,79.07
2022-08-01T11:50:55.814Z,72.94
2022-08-01T11:56:00.220Z,78.16
2022-08-01T12:01:04.711Z,75.32
2022-08-01T12:06:10.219Z,74.40
2022-08-01T12:11:13.325Z,71.28
2022-08-01T12:16:18.272Z,68.92
2022-08-01T12:21:23.922Z,70.25
2022-08-01T12:26:41.195Z,69.73
2022-08-01T12:31:45.633Z,69.64
2022-08-01T12:36:48.899Z,72.39
2022-08-01T12:41:52.062Z,69.48
2022-08-01T12:46:56.840Z,69.38
2022-08-01T12:52:00.345Z,65.95
2022-08-01T12:57:03.935Z,68.08
2022-08-01T13:02:12.257Z,64.08
2022-08-01T13:07:15.347Z,67.48
2022-08-01T13:12:18.602Z,65.14
2022-08-01T13:17:34.116Z,58.22
2022-08-01T13:22:38.221Z,59.52
2022-08-01T13:27:53.930Z,55.24
2022-08-01T13:33:02.646Z,60.41
2022-08-01T13:38:05.615Z,54.30
2022-08-01T13:43:08.638Z,53.05
2022-08-01T13:48:18.684Z,51.17
2022-08-01T13:53:22.892Z,52.86
2022-08-01T13:58:25.969Z,53.07
2022-08-01T14:03:33.450Z,53.58
2022-08-01T14:08:36.942Z,49.39
2022-08-01T14:13:46.602Z,56.70
2022-08-01T14:18:51.591Z,47.45
2022-08-01T14:23:54.613Z,45.93
2022-08-01T14:28:57.600Z,49.81
2022-08-01T14:34:02.445Z,44.43
2022-08-01T14:39:05.512Z,51.43
2022-08-01T14:44:10.037Z,51.81
2022-08-01T14:49:14.523Z,47.53
2022-08-01T14:54:17.724Z,46.58
2022-08-01T14:59:30.355Z,51.98
2022-08-01T15:04:34.752Z,49.33
2022-08-01T15:09:37.697Z,47.79
2022-08-01T15:14:49.934Z,47.60
2022-08-01T15:19:56.170Z,43.24
2022-08-01T15:25:01.331Z,48.15
2022-08-01T15:30:05.935Z,44.40
2022-08-01T15:35:12.164Z,44.62
2022-08-01T15:40:15.128Z,43.40
2022-08-01T15:45:45.736Z,45.89
2022-08-01T15:50:44.709Z,45.72
2022-08-01T15:55:52.355Z,40.99
2022-08-01T16:00:56.183Z,40.01
2022-08-01T16:06:00.533Z,42.09
2022-08-01T16:11:03.601Z,42.34
2022-08-01T16:16:09.343Z,44.29
2022-08-01T16:21:13.770Z,43.71
2022-08-01T16:26:27.708Z,46.34
2022-08-01T16:31:38.205Z,44.94
2022-08-01T16:36:56.465Z,44.25
2022-08-01T16:41:59.502Z,42.69
2022-08-01T16:47:05.557Z,41.21
2022-08-01T16:52:10.401Z,37.56
2022-08-01T16:57:14.096Z,38.91
2022-08-01T17:02:17.455Z,44.68
2022-08-01T17:07:21.843Z,42.22
2022-08-01T17:12:24.974Z,43.97
2022-08-01T17:17:29.266Z,42.40
2022-08-01T17:22:33.568Z,43.03
2022-08-01T17:27:36.638Z,39.85
2022-08-01T17:32:42.050Z,43.01
2022-08-01T17:37:46.606Z,42.21
2022-08-01T17:42:49.715Z,43.29
2022-08-01T17:47:52.710Z,44.58
2022-08-01T17:52:57.093Z,42.77
2022-08-01T17:58:00.083Z,42.37
2022-08-01T18:03:03.076Z,44.54
2022-08-01T18:08:12.892Z,43.59
2022-08-01T18:13:18.468Z,44.07
2022-08-01T18:18:33.212Z,44.86
2022-08-01T18:23:38.139Z,45.24
2022-08-01T18:28:46.514Z,46.96
2022-08-01T18:33:50.237Z,47.62
2022-08-01T18:38:54.538Z,47.42
2022-08-01T18:44:04.263Z,48.46
2022-08-01T18:49:12.861Z,49.65
2022-08-01T18:54:18.159Z,50.62
2022-08-01T18:59:21.665Z,50.64
2022-08-01T19:04:24.866Z,51.64
2022-08-01T19:09:29.261Z,53.62
2022-08-01T19:14:32.211Z,55.26
2022-08-01T19:19:36.753Z,56.36
2022-08-01T19:24:41.776Z,57.13
2022-08-01T19:29:53.814Z,58.30
2022-08-01T19:35:04.836Z,58.04
2022-08-01T19:40:10.166Z,59.25
2022-08-01T19:45:13.191Z,60.13
2022-08-01T19:50:16.411Z,59.67
2022-08-01T19:55:22.263Z,59.22
2022-08-01T20:00:28.331Z,59.93
2022-08-01T20:05:31.878Z,60.86
2022-08-01T20:10:38.484Z,60.62
2022-08-01T20:15:45.156Z,60.78
2022-08-01T20:20:50.722Z,61.22
2022-08-01T20:26:00.424Z,62.05
2022-08-01T20:31:05.821Z,63.01
2022-08-01T20:36:11.912Z,65.26
2022-08-01T20:41:17.817Z,64.70
2022-08-01T20:46:23.938Z,64.85
2022-08-01T20:51:28.651Z,64.72
2022-08-01T20:56:38.106Z,67.05
2022-08-01T21:01:47.262Z,66.33
2022-08-01T21:06:57.208Z,67.20
2022-08-01T21:12:05.153Z,66.91
2022-08-01T21:17:18.592Z,67.10
2022-08-01T21:22:27.043Z,67.15
2022-08-01T21:27:34.776Z,66.91
2022-08-01T21:32:39.313Z,67.21
2022-08-01T21:37:43.605Z,67.61
2022-08-01T21:42:48.712Z,69.57
2022-08-01T21:47:52.798Z,70.53
2022-08-01T21:53:17.064Z,70.73
2022-08-01T21:58:38.847Z,70.56
2022-08-01T22:03:47.315Z,70.66
2022-08-01T22:08:52.323Z,71.22
2022-08-01T22:14:01.044Z,71.48
2022-08-01T22:19:04.404Z,73.81
2022-08-01T22:24:09.725Z,74.96
2022-08-01T22:29:15.986Z,75.56
2022-08-01T22:34:20.573Z,75.38
2022-08-01T22:39:24.353Z,76.62
2022-08-01T22:44:35.958Z,75.74
2022-08-01T22:49:44.753Z,76.13
2022-08-01T22:54:51.618Z,75.69
2022-08-01T23:00:01.235Z,76.34
2022-08-01T23:05:08.207Z,77.74
2022-08-01T23:10:11.776Z,78.86
2022-08-01T23:15:16.795Z,76.85
2022-08-01T23:20:19.965Z,76.94
2022-08-01T23:25:24.297Z,78.71
2022-08-01T23:30:30.695Z,79.28
2022-08-01T23:35:35.626Z,79.36
2022-08-01T23:40:42.411Z,77.01
2022-08-01T23:46:03.718Z,76.56
2022-08-01T23:51:09.381Z,75.46
2022-08-01T23:56:16.880Z,74.54
